createdAt,value
2018-07-06T00:04:01.537Z,2.93
2018-07-06T00:09:16.241Z,3.43
2018-07-06T00:14:30.939Z,2.03
2018-07-06T00:19:47.720Z,3.90
2018-07-06T00:25:02.223Z,4.30
2018-07-06T00:30:16.752Z,3.10
2018-07-06T00:35:31.238Z,4.33
2018-07-06T00:40:45.749Z,3.73
2018-07-06T00:46:00.340Z,4.00
2018-07-06T00:51:14.751Z,2.97
2018-07-06T00:56:29.330Z,3.70
2018-07-06T01:01:44.016Z,3.63
2018-07-06T01:06:58.917Z,4.50
2018-07-06T01:12:18.797Z,5.97
2018-07-06T01:17:33.429Z,5.73
2018-07-06T01:22:47.866Z,3.60
2018-07-06T01:28:04.409Z,2.97
2018-07-06T01:33:18.776Z,3.30
2018-07-06T01:38:33.330Z,3.60
2018-07-06T01:43:47.819Z,3.30
2018-07-06T01:49:02.170Z,6.13
2018-07-06T01:54:16.711Z,3.23
2018-07-06T01:59:31.209Z,3.77
2018-07-06T02:04:45.785Z,8.83
2018-07-06T02:10:00.478Z,3.97
2018-07-06T02:15:15.870Z,2.70
2018-07-06T02:20:30.438Z,5.13
2018-07-06T02:25:45.063Z,3.43
2018-07-06T02:30:59.638Z,3.23
2018-07-06T02:36:15.275Z,3.10
2018-07-06T02:41:29.933Z,3.13
2018-07-06T02:46:44.579Z,4.40
2018-07-06T02:51:59.151Z,4.97
2018-07-06T02:57:13.729Z,5.67
2018-07-06T03:02:28.394Z,5.33
2018-07-06T03:07:43.072Z,3.83
2018-07-06T03:12:57.790Z,6.27
2018-07-06T03:18:12.478Z,3.10
2018-07-06T03:23:26.973Z,5.27
2018-07-06T03:28:41.799Z,5.73
2018-07-06T03:33:56.311Z,4.00
2018-07-06T03:39:10.946Z,4.70
2018-07-06T03:44:25.393Z,3.63
2018-07-06T03:49:40.021Z,3.53
2018-07-06T03:54:56.557Z,3.57
2018-07-06T04:00:13.085Z,4.43
2018-07-06T04:05:27.542Z,4.10
2018-07-06T04:10:42.206Z,3.73
2018-07-06T04:15:57.059Z,4.30
2018-07-06T04:21:11.430Z,4.50
2018-07-06T04:26:26.041Z,4.40
2018-07-06T04:31:40.701Z,3.63
2018-07-06T04:36:54.954Z,5.33
2018-07-06T04:42:09.689Z,4.20
2018-07-06T04:47:24.203Z,3.47
2018-07-06T04:52:38.837Z,5.57
2018-07-06T04:57:53.532Z,4.23
2018-07-06T05:03:08.154Z,3.43
2018-07-06T05:08:22.749Z,3.90
2018-07-06T05:13:37.355Z,4.13
2018-07-06T05:18:51.853Z,4.73
2018-07-06T05:24:06.423Z,6.70
2018-07-06T05:29:21.057Z,4.93
2018-07-06T05:34:35.717Z,10.27
2018-07-06T05:39:50.265Z,10.33
2018-07-06T05:45:04.869Z,14.07
2018-07-06T05:50:19.574Z,13.17
2018-07-06T05:55:34.154Z,15.07
2018-07-06T06:00:49.018Z,13.67
2018-07-06T06:06:03.898Z,13.87
2018-07-06T06:11:07.040Z,14.50
2018-07-06T06:16:10.210Z,17.30
2018-07-06T06:21:14.406Z,17.60
2018-07-06T06:26:23.859Z,17.47
2018-07-06T06:31:27.642Z,24.53
2018-07-06T06:36:31.382Z,19.60
2018-07-06T06:41:34.534Z,18.93
2018-07-06T06:46:37.719Z,15.97
2018-07-06T06:51:41.296Z,18.00
2018-07-06T06:56:44.433Z,22.40
2018-07-06T07:01:47.771Z,17.33
2018-07-06T07:06:51.079Z,20.13
2018-07-06T07:11:54.230Z,18.07
2018-07-06T07:16:57.366Z,18.83
2018-07-06T07:22:00.875Z,18.60
2018-07-06T07:27:04.072Z,20.50
2018-07-06T07:32:07.201Z,15.77
2018-07-06T07:37:10.382Z,18.40
2018-07-06T07:42:13.551Z,18.73
2018-07-06T07:47:16.738Z,19.30
2018-07-06T07:52:31.315Z,18.07
2018-07-06T07:57:34.545Z,18.20
2018-07-06T08:02:37.693Z,22.30
2018-07-06T08:07:40.838Z,20.63
2018-07-06T08:12:44.086Z,20.80
2018-07-06T08:17:47.281Z,20.50
2018-07-06T08:22:50.413Z,18.87
2018-07-06T08:27:54.238Z,16.67
2018-07-06T08:32:58.222Z,15.80
2018-07-06T08:38:03.582Z,17.80
2018-07-06T08:43:06.984Z,15.07
2018-07-06T08:48:10.151Z,15.07
2018-07-06T08:53:13.313Z,15.53
2018-07-06T08:58:16.570Z,13.83
2018-07-06T09:03:25.410Z,14.13
2018-07-06T09:08:32.213Z,13.70
2018-07-06T09:13:35.396Z,14.80
2018-07-06T09:18:39.604Z,15.80
2018-07-06T09:23:44.034Z,15.93
2018-07-06T09:28:47.395Z,16.27
2018-07-06T09:33:50.586Z,13.10
2018-07-06T09:38:53.738Z,13.83
2018-07-06T09:43:57.894Z,13.03
2018-07-06T09:49:01.041Z,12.80
2018-07-06T09:54:04.387Z,16.50
2018-07-06T09:59:07.681Z,18.27
2018-07-06T10:04:10.869Z,16.10
2018-07-06T10:09:14.102Z,15.03
2018-07-06T10:14:17.278Z,14.80
2018-07-06T10:19:20.470Z,12.97
2018-07-06T10:24:23.682Z,15.83
2018-07-06T10:29:40.406Z,13.80
2018-07-06T10:34:43.601Z,14.67
2018-07-06T10:39:47.423Z,13.47
2018-07-06T10:44:50.708Z,13.97
2018-07-06T10:49:53.870Z,14.57
2018-07-06T10:54:57.037Z,12.50
2018-07-06T11:00:00.316Z,12.93
2018-07-06T11:05:07.131Z,15.00
2018-07-06T11:10:10.278Z,11.43
2018-07-06T11:15:13.463Z,15.70
2018-07-06T11:20:18.632Z,12.50
2018-07-06T11:25:21.862Z,11.80
2018-07-06T11:30:26.828Z,12.23
2018-07-06T11:35:32.116Z,13.77
2018-07-06T11:40:35.253Z,9.30
2018-07-06T11:45:38.597Z,12.67
2018-07-06T11:50:41.812Z,10.23
2018-07-06T11:55:48.532Z,13.97
2018-07-06T12:00:51.683Z,9.07
2018-07-06T12:05:55.322Z,15.50
2018-07-06T12:11:00.481Z,10.43
2018-07-06T12:16:03.906Z,9.10
2018-07-06T12:21:07.157Z,7.83
2018-07-06T12:26:10.374Z,9.10
2018-07-06T12:31:17.128Z,5.93
2018-07-06T12:36:33.021Z,6.47
2018-07-06T12:41:36.263Z,5.90
2018-07-06T12:46:39.715Z,6.43
2018-07-06T12:51:42.840Z,5.30
2018-07-06T12:56:49.485Z,7.63
2018-07-06T13:01:52.703Z,4.53
2018-07-06T13:06:55.970Z,7.43
2018-07-06T13:11:59.407Z,6.50
2018-07-06T13:17:02.568Z,4.97
2018-07-06T13:22:06.007Z,4.27
2018-07-06T13:27:09.191Z,3.63
2018-07-06T13:32:12.629Z,2.80
2018-07-06T13:37:15.902Z,3.27
2018-07-06T13:42:19.190Z,3.80
2018-07-06T13:47:22.383Z,6.20
2018-07-06T13:52:25.558Z,3.60
2018-07-06T13:57:28.778Z,3.97
2018-07-06T14:02:32.277Z,3.73
2018-07-06T14:07:35.716Z,4.27
2018-07-06T14:12:39.831Z,3.30
2018-07-06T14:17:47.080Z,3.50
2018-07-06T14:22:50.296Z,4.13
2018-07-06T14:27:53.656Z,2.63
2018-07-06T14:32:57.038Z,3.17
2018-07-06T14:38:00.562Z,7.43
2018-07-06T14:43:05.293Z,4.60
2018-07-06T14:48:08.734Z,2.97
2018-07-06T14:53:12.011Z,3.73
2018-07-06T14:58:16.396Z,4.47
2018-07-06T15:03:19.555Z,6.93
2018-07-06T15:08:22.821Z,2.83
2018-07-06T15:13:27.587Z,4.03
2018-07-06T15:18:31.103Z,3.57
2018-07-06T15:23:35.141Z,4.27
2018-07-06T15:28:38.447Z,2.93
2018-07-06T15:33:41.626Z,3.60
2018-07-06T15:38:44.834Z,3.23
2018-07-06T15:43:48.188Z,6.53
2018-07-06T15:48:51.437Z,4.53
2018-07-06T15:53:54.558Z,4.70
2018-07-06T15:58:57.737Z,4.80
2018-07-06T16:04:00.940Z,5.90
2018-07-06T16:09:04.498Z,2.67
2018-07-06T16:14:07.768Z,4.20
2018-07-06T16:19:10.919Z,3.37
2018-07-06T16:24:14.290Z,7.50
2018-07-06T16:29:17.441Z,4.53
2018-07-06T16:34:20.693Z,3.17
2018-07-06T16:39:23.833Z,5.70
2018-07-06T16:44:26.971Z,5.13
2018-07-06T16:49:30.114Z,2.63
2018-07-06T16:54:33.543Z,4.17
2018-07-06T16:59:36.699Z,5.13
2018-07-06T17:04:39.959Z,3.73
2018-07-06T17:09:43.164Z,5.23
2018-07-06T17:14:46.587Z,4.13
2018-07-06T17:19:49.755Z,6.17
2018-07-06T17:24:52.894Z,7.13
2018-07-06T17:29:56.098Z,5.37
2018-07-06T17:34:59.289Z,5.37
2018-07-06T17:40:02.438Z,3.97
2018-07-06T17:45:05.609Z,3.77
2018-07-06T17:50:08.826Z,5.33
2018-07-06T17:55:11.934Z,3.67
2018-07-06T18:00:15.082Z,5.87
2018-07-06T18:05:18.210Z,4.03
2018-07-06T18:10:21.552Z,8.80
2018-07-06T18:15:24.771Z,8.10
2018-07-06T18:20:28.094Z,7.67
2018-07-06T18:25:32.546Z,3.10
2018-07-06T18:30:35.685Z,4.30
2018-07-06T18:35:38.949Z,5.60
2018-07-06T18:40:42.241Z,7.53
2018-07-06T18:45:45.399Z,4.87
2018-07-06T18:50:48.551Z,5.33
2018-07-06T18:55:51.699Z,7.10
2018-07-06T19:00:56.962Z,3.10
2018-07-06T19:06:00.122Z,3.13
2018-07-06T19:11:03.338Z,4.33
2018-07-06T19:16:06.574Z,7.97
2018-07-06T19:21:09.770Z,7.60
2018-07-06T19:26:13.027Z,9.97
2018-07-06T19:31:16.591Z,6.07
2018-07-06T19:36:19.826Z,5.17
2018-07-06T19:41:23.018Z,5.97
2018-07-06T19:46:26.168Z,3.30
2018-07-06T19:51:29.370Z,5.23
2018-07-06T19:56:32.575Z,4.47
2018-07-06T20:01:35.764Z,5.83
2018-07-06T20:06:43.130Z,4.23
2018-07-06T20:11:46.354Z,5.13
2018-07-06T20:16:49.566Z,5.87
2018-07-06T20:21:52.859Z,6.33
2018-07-06T20:26:56.006Z,6.87
2018-07-06T20:32:00.230Z,4.53
2018-07-06T20:37:03.353Z,4.87
2018-07-06T20:42:06.529Z,7.50
2018-07-06T20:47:09.774Z,4.30
2018-07-06T20:52:12.982Z,6.17
2018-07-06T20:57:16.173Z,5.83
2018-07-06T21:02:19.346Z,6.33
2018-07-06T21:07:22.463Z,5.37
2018-07-06T21:12:25.635Z,6.40
2018-07-06T21:17:28.545Z,6.57
2018-07-06T21:22:32.765Z,5.03
2018-07-06T21:27:35.986Z,6.73
2018-07-06T21:32:39.100Z,5.63
2018-07-06T21:37:42.238Z,5.97
2018-07-06T21:42:45.503Z,8.03
2018-07-06T21:47:48.638Z,7.30
2018-07-06T21:52:51.755Z,8.53
2018-07-06T21:57:54.886Z,5.57
2018-07-06T22:02:58.033Z,5.00
2018-07-06T22:08:02.770Z,7.23
2018-07-06T22:13:06.772Z,6.67
2018-07-06T22:18:09.965Z,5.17
2018-07-06T22:23:13.597Z,3.63
2018-07-06T22:28:16.746Z,3.53
2018-07-06T22:33:19.863Z,8.13
2018-07-06T22:38:23.006Z,2.43
2018-07-06T22:43:26.134Z,2.93
2018-07-06T22:48:29.503Z,4.27
2018-07-06T22:53:32.661Z,2.83
2018-07-06T22:58:35.897Z,4.37
2018-07-06T23:03:38.986Z,4.60
2018-07-06T23:08:42.170Z,2.03
2018-07-06T23:13:45.298Z,3.17
2018-07-06T23:18:48.409Z,2.00
2018-07-06T23:23:51.581Z,4.03
2018-07-06T23:28:55.046Z,6.30
2018-07-06T23:33:58.199Z,2.67
2018-07-06T23:39:01.416Z,4.00
2018-07-06T23:44:04.542Z,5.80
2018-07-06T23:49:07.686Z,3.37
2018-07-06T23:54:10.822Z,3.60
2018-07-06T23:59:14.670Z,5.43
